<?xml version="1.0" encoding="UTF-8" standalone="no" ?>
<gpx xmlns="http://www.topografix.com/GPX/1/1" xmlns:xsi="http://www.w3.org/2001/XMLSchema-instance" xsi:schemaLocation="http://www.topografix.com/GPX/1/1 http://www.topografix.com/GPX/1/1/gpx.xsd" version="1.1" creator="VisuGPX - https://www.visugpx.com">
  <metadata>
    <name>5 KM MONETEAU 2025</name>
  </metadata>
  <wpt lat="47.84891" lon="3.57876">
    <ele>93.6</ele>
    <name><![CDATA[5 km 2025]]></name>
    <type><![CDATA[Generic]]></type>
  </wpt>
  <trk>
    <name><![CDATA[5 km 2025 on edp-parcours.com]]></name>
    <trkseg>
      <trkpt lat="47.84891" lon="3.57876">
        <ele>93.6</ele>
        <time>2025-02-25T17:34:52Z</time>
      </trkpt>
      <trkpt lat="47.84895" lon="3.57875">
        <ele>93.7</ele>
        <time>2025-02-25T17:34:54Z</time>
      </trkpt>
      <trkpt lat="47.849" lon="3.57874">
        <ele>93.9</ele>
        <time>2025-02-25T17:35:04Z</time>
      </trkpt>
      <trkpt lat="47.84903" lon="3.57873">
        <ele>93.9</ele>
        <time>2025-02-25T17:35:19Z</time>
      </trkpt>
      <trkpt lat="47.84905" lon="3.57873">
        <ele>94</ele>
        <time>2025-02-25T17:35:34Z</time>
      </trkpt>
      <trkpt lat="47.84909" lon="3.57874">
        <ele>94.2</ele>
        <time>2025-02-25T17:35:41Z</time>
      </trkpt>
      <trkpt lat="47.8491" lon="3.57873">
        <ele>94.2</ele>
        <time>2025-02-25T17:35:46Z</time>
      </trkpt>
      <trkpt lat="47.84917" lon="3.57873">
        <ele>94.4</ele>
        <time>2025-02-25T17:35:48Z</time>
      </trkpt>
      <trkpt lat="47.84921" lon="3.57873">
        <ele>94.4</ele>
        <time>2025-02-25T17:36:00Z</time>
      </trkpt>
      <trkpt lat="47.84925" lon="3.57872">
        <ele>94.4</ele>
        <time>2025-02-25T17:36:20Z</time>
      </trkpt>
      <trkpt lat="47.84929" lon="3.57871">
        <ele>94.4</ele>
        <time>2025-02-25T17:36:36Z</time>
      </trkpt>
      <trkpt lat="47.84941" lon="3.57868">
        <ele>94.3</ele>
        <time>2025-02-25T17:36:45Z</time>
      </trkpt>
      <trkpt lat="47.84947" lon="3.57868">
        <ele>94.4</ele>
        <time>2025-02-25T17:37:02Z</time>
      </trkpt>
      <trkpt lat="47.84967" lon="3.57866">
        <ele>95</ele>
        <time>2025-02-25T17:37:06Z</time>
      </trkpt>
      <trkpt lat="47.84979" lon="3.57859">
        <ele>95</ele>
        <time>2025-02-25T17:37:19Z</time>
      </trkpt>
      <trkpt lat="47.84981" lon="3.57854">
        <ele>95</ele>
        <time>2025-02-25T17:37:36Z</time>
      </trkpt>
      <trkpt lat="47.84979" lon="3.57817">
        <ele>94.9</ele>
        <time>2025-02-25T17:37:41Z</time>
      </trkpt>
      <trkpt lat="47.84977" lon="3.57803">
        <ele>94.5</ele>
        <time>2025-02-25T17:37:45Z</time>
      </trkpt>
      <trkpt lat="47.84974" lon="3.57789">
        <ele>92.6</ele>
        <time>2025-02-25T17:37:55Z</time>
      </trkpt>
      <trkpt lat="47.84964" lon="3.57754">
        <ele>90.7</ele>
        <time>2025-02-25T17:38:01Z</time>
      </trkpt>
      <trkpt lat="47.84954" lon="3.57725">
        <ele>90</ele>
        <time>2025-02-25T17:38:13Z</time>
      </trkpt>
      <trkpt lat="47.84943" lon="3.57692">
        <ele>92.3</ele>
        <time>2025-02-25T17:38:32Z</time>
      </trkpt>
      <trkpt lat="47.84939" lon="3.57676">
        <ele>93.5</ele>
        <time>2025-02-25T17:38:39Z</time>
      </trkpt>
      <trkpt lat="47.84927" lon="3.57648">
        <ele>94.1</ele>
        <time>2025-02-25T17:38:58Z</time>
      </trkpt>
      <trkpt lat="47.84914" lon="3.57624">
        <ele>94.4</ele>
        <time>2025-02-25T17:39:12Z</time>
      </trkpt>
      <trkpt lat="47.84896" lon="3.57591">
        <ele>93.8</ele>
        <time>2025-02-25T17:39:24Z</time>
      </trkpt>
      <trkpt lat="47.84889" lon="3.57584">
        <ele>94</ele>
        <time>2025-02-25T17:39:35Z</time>
      </trkpt>
      <trkpt lat="47.84887" lon="3.57582">
        <ele>94</ele>
        <time>2025-02-25T17:39:44Z</time>
      </trkpt>
      <trkpt lat="47.84884" lon="3.5758">
        <ele>94</ele>
        <time>2025-02-25T17:39:59Z</time>
      </trkpt>
      <trkpt lat="47.84883" lon="3.57579">
        <ele>94</ele>
        <time>2025-02-25T17:40:08Z</time>
      </trkpt>
      <trkpt lat="47.8488" lon="3.57577">
        <ele>94</ele>
        <time>2025-02-25T17:40:22Z</time>
      </trkpt>
      <trkpt lat="47.84877" lon="3.57574">
        <ele>94</ele>
        <time>2025-02-25T17:40:40Z</time>
      </trkpt>
      <trkpt lat="47.84873" lon="3.57572">
        <ele>94</ele>
        <time>2025-02-25T17:40:53Z</time>
      </trkpt>
      <trkpt lat="47.84869" lon="3.57569">
        <ele>94</ele>
        <time>2025-02-25T17:41:01Z</time>
      </trkpt>
      <trkpt lat="47.84866" lon="3.57567">
        <ele>94</ele>
        <time>2025-02-25T17:41:09Z</time>
      </trkpt>
      <trkpt lat="47.84862" lon="3.57565">
        <ele>94</ele>
        <time>2025-02-25T17:41:24Z</time>
      </trkpt>
      <trkpt lat="47.84858" lon="3.57562">
        <ele>94</ele>
        <time>2025-02-25T17:41:29Z</time>
      </trkpt>
      <trkpt lat="47.84856" lon="3.57559">
        <ele>94</ele>
        <time>2025-02-25T17:41:46Z</time>
      </trkpt>
      <trkpt lat="47.84853" lon="3.57556">
        <ele>94</ele>
        <time>2025-02-25T17:42:02Z</time>
      </trkpt>
      <trkpt lat="47.8485" lon="3.57553">
        <ele>93.9</ele>
        <time>2025-02-25T17:42:10Z</time>
      </trkpt>
      <trkpt lat="47.84845" lon="3.57547">
        <ele>93.9</ele>
        <time>2025-02-25T17:42:18Z</time>
      </trkpt>
      <trkpt lat="47.84842" lon="3.57542">
        <ele>93.8</ele>
        <time>2025-02-25T17:42:33Z</time>
      </trkpt>
      <trkpt lat="47.84839" lon="3.57534">
        <ele>93.9</ele>
        <time>2025-02-25T17:42:45Z</time>
      </trkpt>
      <trkpt lat="47.84833" lon="3.57514">
        <ele>94</ele>
        <time>2025-02-25T17:43:02Z</time>
      </trkpt>
      <trkpt lat="47.84831" lon="3.57495">
        <ele>94</ele>
        <time>2025-02-25T17:43:20Z</time>
      </trkpt>
      <trkpt lat="47.8483" lon="3.57484">
        <ele>94</ele>
        <time>2025-02-25T17:43:32Z</time>
      </trkpt>
      <trkpt lat="47.84829" lon="3.57474">
        <ele>94</ele>
        <time>2025-02-25T17:43:50Z</time>
      </trkpt>
      <trkpt lat="47.84827" lon="3.57461">
        <ele>94</ele>
        <time>2025-02-25T17:44:00Z</time>
      </trkpt>
      <trkpt lat="47.84824" lon="3.57437">
        <ele>93.8</ele>
        <time>2025-02-25T17:44:03Z</time>
      </trkpt>
      <trkpt lat="47.84822" lon="3.57424">
        <ele>93.5</ele>
        <time>2025-02-25T17:44:08Z</time>
      </trkpt>
      <trkpt lat="47.84821" lon="3.57412">
        <ele>93.4</ele>
        <time>2025-02-25T17:44:13Z</time>
      </trkpt>
      <trkpt lat="47.84819" lon="3.57398">
        <ele>93.5</ele>
        <time>2025-02-25T17:44:25Z</time>
      </trkpt>
      <trkpt lat="47.84818" lon="3.57386">
        <ele>93.5</ele>
        <time>2025-02-25T17:44:41Z</time>
      </trkpt>
      <trkpt lat="47.84817" lon="3.57382">
        <ele>93.4</ele>
        <time>2025-02-25T17:44:49Z</time>
      </trkpt>
      <trkpt lat="47.84817" lon="3.5738">
        <ele>93.4</ele>
        <time>2025-02-25T17:45:03Z</time>
      </trkpt>
      <trkpt lat="47.84816" lon="3.57377">
        <ele>93.3</ele>
        <time>2025-02-25T17:45:22Z</time>
      </trkpt>
      <trkpt lat="47.84816" lon="3.57374">
        <ele>93.3</ele>
        <time>2025-02-25T17:45:29Z</time>
      </trkpt>
      <trkpt lat="47.84816" lon="3.57373">
        <ele>93.3</ele>
        <time>2025-02-25T17:45:46Z</time>
      </trkpt>
      <trkpt lat="47.84815" lon="3.57367">
        <ele>93.1</ele>
        <time>2025-02-25T17:46:06Z</time>
      </trkpt>
      <trkpt lat="47.84815" lon="3.57362">
        <ele>93</ele>
        <time>2025-02-25T17:46:16Z</time>
      </trkpt>
      <trkpt lat="47.84814" lon="3.57357">
        <ele>93.1</ele>
        <time>2025-02-25T17:46:19Z</time>
      </trkpt>
      <trkpt lat="47.84814" lon="3.57355">
        <ele>93.2</ele>
        <time>2025-02-25T17:46:39Z</time>
      </trkpt>
      <trkpt lat="47.84814" lon="3.57353">
        <ele>93.2</ele>
        <time>2025-02-25T17:46:53Z</time>
      </trkpt>
      <trkpt lat="47.84813" lon="3.57352">
        <ele>93.2</ele>
        <time>2025-02-25T17:46:55Z</time>
      </trkpt>
      <trkpt lat="47.84813" lon="3.5735">
        <ele>93.3</ele>
        <time>2025-02-25T17:47:12Z</time>
      </trkpt>
      <trkpt lat="47.84812" lon="3.5734">
        <ele>93.6</ele>
        <time>2025-02-25T17:47:25Z</time>
      </trkpt>
      <trkpt lat="47.84811" lon="3.57331">
        <ele>93.8</ele>
        <time>2025-02-25T17:47:40Z</time>
      </trkpt>
      <trkpt lat="47.84808" lon="3.57316">
        <ele>93.9</ele>
        <time>2025-02-25T17:47:43Z</time>
      </trkpt>
      <trkpt lat="47.84796" lon="3.5723">
        <ele>93.5</ele>
        <time>2025-02-25T17:47:52Z</time>
      </trkpt>
      <trkpt lat="47.8479" lon="3.57194">
        <ele>93</ele>
        <time>2025-02-25T17:48:11Z</time>
      </trkpt>
      <trkpt lat="47.84785" lon="3.57172">
        <ele>93</ele>
        <time>2025-02-25T17:48:16Z</time>
      </trkpt>
      <trkpt lat="47.84778" lon="3.5714">
        <ele>93</ele>
        <time>2025-02-25T17:48:20Z</time>
      </trkpt>
      <trkpt lat="47.84772" lon="3.57113">
        <ele>93</ele>
        <time>2025-02-25T17:48:24Z</time>
      </trkpt>
      <trkpt lat="47.84768" lon="3.57098">
        <ele>93.3</ele>
        <time>2025-02-25T17:48:41Z</time>
      </trkpt>
      <trkpt lat="47.84757" lon="3.57065">
        <ele>93.7</ele>
        <time>2025-02-25T17:48:50Z</time>
      </trkpt>
      <trkpt lat="47.84742" lon="3.57024">
        <ele>93.8</ele>
        <time>2025-02-25T17:49:07Z</time>
      </trkpt>
      <trkpt lat="47.84738" lon="3.57007">
        <ele>93.9</ele>
        <time>2025-02-25T17:49:15Z</time>
      </trkpt>
      <trkpt lat="47.8474" lon="3.57005">
        <ele>93.9</ele>
        <time>2025-02-25T17:49:30Z</time>
      </trkpt>
      <trkpt lat="47.84741" lon="3.56996">
        <ele>94</ele>
        <time>2025-02-25T17:49:43Z</time>
      </trkpt>
      <trkpt lat="47.84741" lon="3.56991">
        <ele>94</ele>
        <time>2025-02-25T17:49:50Z</time>
      </trkpt>
      <trkpt lat="47.8474" lon="3.56987">
        <ele>94</ele>
        <time>2025-02-25T17:49:52Z</time>
      </trkpt>
      <trkpt lat="47.84741" lon="3.56984">
        <ele>94</ele>
        <time>2025-02-25T17:50:05Z</time>
      </trkpt>
      <trkpt lat="47.84743" lon="3.56976">
        <ele>94</ele>
        <time>2025-02-25T17:50:24Z</time>
      </trkpt>
      <trkpt lat="47.84755" lon="3.56949">
        <ele>94</ele>
        <time>2025-02-25T17:50:28Z</time>
      </trkpt>
      <trkpt lat="47.84759" lon="3.56937">
        <ele>94</ele>
        <time>2025-02-25T17:50:42Z</time>
      </trkpt>
      <trkpt lat="47.84771" lon="3.56902">
        <ele>94</ele>
        <time>2025-02-25T17:50:51Z</time>
      </trkpt>
      <trkpt lat="47.84774" lon="3.56893">
        <ele>94</ele>
        <time>2025-02-25T17:51:02Z</time>
      </trkpt>
      <trkpt lat="47.84781" lon="3.56867">
        <ele>94</ele>
        <time>2025-02-25T17:51:18Z</time>
      </trkpt>
      <trkpt lat="47.84784" lon="3.56856">
        <ele>93.9</ele>
        <time>2025-02-25T17:51:24Z</time>
      </trkpt>
      <trkpt lat="47.84791" lon="3.56814">
        <ele>93.9</ele>
        <time>2025-02-25T17:51:37Z</time>
      </trkpt>
      <trkpt lat="47.84793" lon="3.56804">
        <ele>94</ele>
        <time>2025-02-25T17:51:48Z</time>
      </trkpt>
      <trkpt lat="47.84801" lon="3.56755">
        <ele>94</ele>
        <time>2025-02-25T17:52:07Z</time>
      </trkpt>
      <trkpt lat="47.84808" lon="3.56708">
        <ele>93.9</ele>
        <time>2025-02-25T17:52:12Z</time>
      </trkpt>
      <trkpt lat="47.84816" lon="3.56663">
        <ele>93.1</ele>
        <time>2025-02-25T17:52:14Z</time>
      </trkpt>
      <trkpt lat="47.84824" lon="3.56607">
        <ele>93</ele>
        <time>2025-02-25T17:52:23Z</time>
      </trkpt>
      <trkpt lat="47.84833" lon="3.56555">
        <ele>93</ele>
        <time>2025-02-25T17:52:43Z</time>
      </trkpt>
      <trkpt lat="47.84841" lon="3.56508">
        <ele>93</ele>
        <time>2025-02-25T17:52:53Z</time>
      </trkpt>
      <trkpt lat="47.8485" lon="3.56455">
        <ele>92.8</ele>
        <time>2025-02-25T17:53:08Z</time>
      </trkpt>
      <trkpt lat="47.84859" lon="3.56403">
        <ele>93</ele>
        <time>2025-02-25T17:53:19Z</time>
      </trkpt>
      <trkpt lat="47.84862" lon="3.56384">
        <ele>93</ele>
        <time>2025-02-25T17:53:35Z</time>
      </trkpt>
      <trkpt lat="47.84864" lon="3.56374">
        <ele>92.9</ele>
        <time>2025-02-25T17:53:44Z</time>
      </trkpt>
      <trkpt lat="47.84868" lon="3.56348">
        <ele>91.5</ele>
        <time>2025-02-25T17:53:57Z</time>
      </trkpt>
      <trkpt lat="47.84876" lon="3.56302">
        <ele>90.6</ele>
        <time>2025-02-25T17:53:59Z</time>
      </trkpt>
      <trkpt lat="47.8488" lon="3.5628">
        <ele>91.5</ele>
        <time>2025-02-25T17:54:12Z</time>
      </trkpt>
      <trkpt lat="47.84887" lon="3.56226">
        <ele>93.8</ele>
        <time>2025-02-25T17:54:32Z</time>
      </trkpt>
      <trkpt lat="47.8489" lon="3.56199">
        <ele>94</ele>
        <time>2025-02-25T17:54:47Z</time>
      </trkpt>
      <trkpt lat="47.84892" lon="3.56177">
        <ele>94</ele>
        <time>2025-02-25T17:54:58Z</time>
      </trkpt>
      <trkpt lat="47.84894" lon="3.56147">
        <ele>94.7</ele>
        <time>2025-02-25T17:55:09Z</time>
      </trkpt>
      <trkpt lat="47.84894" lon="3.56121">
        <ele>95.7</ele>
        <time>2025-02-25T17:55:18Z</time>
      </trkpt>
      <trkpt lat="47.84896" lon="3.56114">
        <ele>95.9</ele>
        <time>2025-02-25T17:55:25Z</time>
      </trkpt>
      <trkpt lat="47.84898" lon="3.56098">
        <ele>96</ele>
        <time>2025-02-25T17:55:38Z</time>
      </trkpt>
      <trkpt lat="47.84901" lon="3.56086">
        <ele>96</ele>
        <time>2025-02-25T17:55:48Z</time>
      </trkpt>
      <trkpt lat="47.84902" lon="3.56079">
        <ele>96.2</ele>
        <time>2025-02-25T17:56:08Z</time>
      </trkpt>
      <trkpt lat="47.84907" lon="3.56066">
        <ele>96.6</ele>
        <time>2025-02-25T17:56:21Z</time>
      </trkpt>
      <trkpt lat="47.8491" lon="3.56059">
        <ele>96.9</ele>
        <time>2025-02-25T17:56:37Z</time>
      </trkpt>
      <trkpt lat="47.84912" lon="3.56052">
        <ele>97</ele>
        <time>2025-02-25T17:56:56Z</time>
      </trkpt>
      <trkpt lat="47.84912" lon="3.56046">
        <ele>97</ele>
        <time>2025-02-25T17:57:06Z</time>
      </trkpt>
      <trkpt lat="47.84922" lon="3.56016">
        <ele>97.3</ele>
        <time>2025-02-25T17:57:10Z</time>
      </trkpt>
      <trkpt lat="47.84934" lon="3.55978">
        <ele>97.9</ele>
        <time>2025-02-25T17:57:18Z</time>
      </trkpt>
      <trkpt lat="47.84938" lon="3.55965">
        <ele>98</ele>
        <time>2025-02-25T17:57:32Z</time>
      </trkpt>
      <trkpt lat="47.84957" lon="3.5592">
        <ele>98</ele>
        <time>2025-02-25T17:57:51Z</time>
      </trkpt>
      <trkpt lat="47.84973" lon="3.55879">
        <ele>98</ele>
        <time>2025-02-25T17:58:05Z</time>
      </trkpt>
      <trkpt lat="47.84979" lon="3.55863">
        <ele>98</ele>
        <time>2025-02-25T17:58:23Z</time>
      </trkpt>
      <trkpt lat="47.84987" lon="3.55848">
        <ele>98</ele>
        <time>2025-02-25T17:58:32Z</time>
      </trkpt>
      <trkpt lat="47.84987" lon="3.55846">
        <ele>98</ele>
        <time>2025-02-25T17:58:37Z</time>
      </trkpt>
      <trkpt lat="47.84991" lon="3.55835">
        <ele>98</ele>
        <time>2025-02-25T17:58:50Z</time>
      </trkpt>
      <trkpt lat="47.85003" lon="3.55803">
        <ele>98</ele>
        <time>2025-02-25T17:59:03Z</time>
      </trkpt>
      <trkpt lat="47.85011" lon="3.55773">
        <ele>98</ele>
        <time>2025-02-25T17:59:20Z</time>
      </trkpt>
      <trkpt lat="47.84999" lon="3.55762">
        <ele>98</ele>
        <time>2025-02-25T17:59:29Z</time>
      </trkpt>
      <trkpt lat="47.84987" lon="3.5575">
        <ele>98.5</ele>
        <time>2025-02-25T17:59:36Z</time>
      </trkpt>
      <trkpt lat="47.84976" lon="3.55734">
        <ele>98.9</ele>
        <time>2025-02-25T17:59:38Z</time>
      </trkpt>
      <trkpt lat="47.84971" lon="3.55727">
        <ele>99</ele>
        <time>2025-02-25T17:59:57Z</time>
      </trkpt>
      <trkpt lat="47.84969" lon="3.55721">
        <ele>99.1</ele>
        <time>2025-02-25T17:59:59Z</time>
      </trkpt>
      <trkpt lat="47.84967" lon="3.55717">
        <ele>99.2</ele>
        <time>2025-02-25T18:00:09Z</time>
      </trkpt>
      <trkpt lat="47.84948" lon="3.5568">
        <ele>99.4</ele>
        <time>2025-02-25T18:00:25Z</time>
      </trkpt>
      <trkpt lat="47.84938" lon="3.55661">
        <ele>98.9</ele>
        <time>2025-02-25T18:00:34Z</time>
      </trkpt>
      <trkpt lat="47.84926" lon="3.55638">
        <ele>98.7</ele>
        <time>2025-02-25T18:00:51Z</time>
      </trkpt>
      <trkpt lat="47.84913" lon="3.55614">
        <ele>99</ele>
        <time>2025-02-25T18:01:04Z</time>
      </trkpt>
      <trkpt lat="47.84901" lon="3.55592">
        <ele>99</ele>
        <time>2025-02-25T18:01:15Z</time>
      </trkpt>
      <trkpt lat="47.84896" lon="3.55581">
        <ele>98.9</ele>
        <time>2025-02-25T18:01:25Z</time>
      </trkpt>
      <trkpt lat="47.84888" lon="3.55572">
        <ele>98.6</ele>
        <time>2025-02-25T18:01:27Z</time>
      </trkpt>
      <trkpt lat="47.84877" lon="3.55584">
        <ele>99</ele>
        <time>2025-02-25T18:01:44Z</time>
      </trkpt>
      <trkpt lat="47.84859" lon="3.55608">
        <ele>99</ele>
        <time>2025-02-25T18:02:01Z</time>
      </trkpt>
      <trkpt lat="47.84842" lon="3.55632">
        <ele>99</ele>
        <time>2025-02-25T18:02:14Z</time>
      </trkpt>
      <trkpt lat="47.84825" lon="3.55655">
        <ele>99</ele>
        <time>2025-02-25T18:02:17Z</time>
      </trkpt>
      <trkpt lat="47.84818" lon="3.55665">
        <ele>99</ele>
        <time>2025-02-25T18:02:22Z</time>
      </trkpt>
      <trkpt lat="47.84796" lon="3.55689">
        <ele>99</ele>
        <time>2025-02-25T18:02:39Z</time>
      </trkpt>
      <trkpt lat="47.84778" lon="3.5571">
        <ele>99</ele>
        <time>2025-02-25T18:02:49Z</time>
      </trkpt>
      <trkpt lat="47.84762" lon="3.55729">
        <ele>99</ele>
        <time>2025-02-25T18:03:08Z</time>
      </trkpt>
      <trkpt lat="47.84745" lon="3.55749">
        <ele>99</ele>
        <time>2025-02-25T18:03:13Z</time>
      </trkpt>
      <trkpt lat="47.84756" lon="3.55776">
        <ele>99</ele>
        <time>2025-02-25T18:03:31Z</time>
      </trkpt>
      <trkpt lat="47.84772" lon="3.55806">
        <ele>99</ele>
        <time>2025-02-25T18:03:49Z</time>
      </trkpt>
      <trkpt lat="47.84788" lon="3.55841">
        <ele>99</ele>
        <time>2025-02-25T18:03:54Z</time>
      </trkpt>
      <trkpt lat="47.84802" lon="3.55871">
        <ele>99</ele>
        <time>2025-02-25T18:04:04Z</time>
      </trkpt>
      <trkpt lat="47.84806" lon="3.55878">
        <ele>99</ele>
        <time>2025-02-25T18:04:20Z</time>
      </trkpt>
      <trkpt lat="47.84822" lon="3.5591">
        <ele>98.4</ele>
        <time>2025-02-25T18:04:34Z</time>
      </trkpt>
      <trkpt lat="47.84833" lon="3.55932">
        <ele>98</ele>
        <time>2025-02-25T18:04:42Z</time>
      </trkpt>
      <trkpt lat="47.84852" lon="3.55969">
        <ele>98</ele>
        <time>2025-02-25T18:05:00Z</time>
      </trkpt>
      <trkpt lat="47.84859" lon="3.55983">
        <ele>98</ele>
        <time>2025-02-25T18:05:02Z</time>
      </trkpt>
      <trkpt lat="47.84865" lon="3.56001">
        <ele>98</ele>
        <time>2025-02-25T18:05:20Z</time>
      </trkpt>
      <trkpt lat="47.84877" lon="3.5604">
        <ele>97.2</ele>
        <time>2025-02-25T18:05:35Z</time>
      </trkpt>
      <trkpt lat="47.84882" lon="3.56058">
        <ele>96.9</ele>
        <time>2025-02-25T18:05:41Z</time>
      </trkpt>
      <trkpt lat="47.84885" lon="3.56077">
        <ele>96.3</ele>
        <time>2025-02-25T18:05:59Z</time>
      </trkpt>
      <trkpt lat="47.84891" lon="3.56103">
        <ele>96</ele>
        <time>2025-02-25T18:06:11Z</time>
      </trkpt>
      <trkpt lat="47.84891" lon="3.5612">
        <ele>95.7</ele>
        <time>2025-02-25T18:06:29Z</time>
      </trkpt>
      <trkpt lat="47.84893" lon="3.56147">
        <ele>94.7</ele>
        <time>2025-02-25T18:06:36Z</time>
      </trkpt>
      <trkpt lat="47.84891" lon="3.56177">
        <ele>94</ele>
        <time>2025-02-25T18:06:49Z</time>
      </trkpt>
      <trkpt lat="47.84889" lon="3.56199">
        <ele>94</ele>
        <time>2025-02-25T18:07:07Z</time>
      </trkpt>
      <trkpt lat="47.84886" lon="3.56226">
        <ele>93.8</ele>
        <time>2025-02-25T18:07:25Z</time>
      </trkpt>
      <trkpt lat="47.84879" lon="3.5628">
        <ele>91.5</ele>
        <time>2025-02-25T18:07:41Z</time>
      </trkpt>
      <trkpt lat="47.84875" lon="3.56302">
        <ele>90.6</ele>
        <time>2025-02-25T18:07:49Z</time>
      </trkpt>
      <trkpt lat="47.84867" lon="3.56347">
        <ele>91.5</ele>
        <time>2025-02-25T18:08:02Z</time>
      </trkpt>
      <trkpt lat="47.84863" lon="3.56373">
        <ele>92.9</ele>
        <time>2025-02-25T18:08:08Z</time>
      </trkpt>
      <trkpt lat="47.84861" lon="3.56383">
        <ele>93</ele>
        <time>2025-02-25T18:08:27Z</time>
      </trkpt>
      <trkpt lat="47.84858" lon="3.56403">
        <ele>93</ele>
        <time>2025-02-25T18:08:32Z</time>
      </trkpt>
      <trkpt lat="47.84857" lon="3.5641">
        <ele>93</ele>
        <time>2025-02-25T18:08:52Z</time>
      </trkpt>
      <trkpt lat="47.84848" lon="3.56451">
        <ele>92.9</ele>
        <time>2025-02-25T18:09:08Z</time>
      </trkpt>
      <trkpt lat="47.8484" lon="3.56448">
        <ele>93</ele>
        <time>2025-02-25T18:09:19Z</time>
      </trkpt>
      <trkpt lat="47.84838" lon="3.56448">
        <ele>93</ele>
        <time>2025-02-25T18:09:21Z</time>
      </trkpt>
      <trkpt lat="47.84813" lon="3.56433">
        <ele>93</ele>
        <time>2025-02-25T18:09:24Z</time>
      </trkpt>
      <trkpt lat="47.84789" lon="3.56416">
        <ele>93</ele>
        <time>2025-02-25T18:09:40Z</time>
      </trkpt>
      <trkpt lat="47.84774" lon="3.56405">
        <ele>93.1</ele>
        <time>2025-02-25T18:09:44Z</time>
      </trkpt>
      <trkpt lat="47.84755" lon="3.56393">
        <ele>93.8</ele>
        <time>2025-02-25T18:09:56Z</time>
      </trkpt>
      <trkpt lat="47.84733" lon="3.56377">
        <ele>93.2</ele>
        <time>2025-02-25T18:10:00Z</time>
      </trkpt>
      <trkpt lat="47.84714" lon="3.56362">
        <ele>93</ele>
        <time>2025-02-25T18:10:04Z</time>
      </trkpt>
      <trkpt lat="47.84712" lon="3.5636">
        <ele>93</ele>
        <time>2025-02-25T18:10:24Z</time>
      </trkpt>
      <trkpt lat="47.84694" lon="3.56343">
        <ele>93</ele>
        <time>2025-02-25T18:10:29Z</time>
      </trkpt>
      <trkpt lat="47.84687" lon="3.56335">
        <ele>93.3</ele>
        <time>2025-02-25T18:10:31Z</time>
      </trkpt>
      <trkpt lat="47.84673" lon="3.56317">
        <ele>93.8</ele>
        <time>2025-02-25T18:10:36Z</time>
      </trkpt>
      <trkpt lat="47.84659" lon="3.563">
        <ele>93.8</ele>
        <time>2025-02-25T18:10:51Z</time>
      </trkpt>
      <trkpt lat="47.8464" lon="3.56271">
        <ele>94</ele>
        <time>2025-02-25T18:11:09Z</time>
      </trkpt>
      <trkpt lat="47.84627" lon="3.56249">
        <ele>94.8</ele>
        <time>2025-02-25T18:11:13Z</time>
      </trkpt>
      <trkpt lat="47.84617" lon="3.56229">
        <ele>95</ele>
        <time>2025-02-25T18:11:27Z</time>
      </trkpt>
      <trkpt lat="47.84598" lon="3.56187">
        <ele>95.3</ele>
        <time>2025-02-25T18:11:45Z</time>
      </trkpt>
      <trkpt lat="47.84596" lon="3.56184">
        <ele>95.4</ele>
        <time>2025-02-25T18:12:02Z</time>
      </trkpt>
      <trkpt lat="47.84593" lon="3.56184">
        <ele>95.5</ele>
        <time>2025-02-25T18:12:09Z</time>
      </trkpt>
      <trkpt lat="47.84591" lon="3.56184">
        <ele>95.6</ele>
        <time>2025-02-25T18:12:15Z</time>
      </trkpt>
      <trkpt lat="47.84587" lon="3.56187">
        <ele>95.8</ele>
        <time>2025-02-25T18:12:34Z</time>
      </trkpt>
      <trkpt lat="47.84579" lon="3.56196">
        <ele>96.2</ele>
        <time>2025-02-25T18:12:49Z</time>
      </trkpt>
      <trkpt lat="47.84563" lon="3.56212">
        <ele>96.7</ele>
        <time>2025-02-25T18:13:01Z</time>
      </trkpt>
      <trkpt lat="47.84553" lon="3.56225">
        <ele>97</ele>
        <time>2025-02-25T18:13:12Z</time>
      </trkpt>
      <trkpt lat="47.84542" lon="3.56238">
        <ele>97</ele>
        <time>2025-02-25T18:13:17Z</time>
      </trkpt>
      <trkpt lat="47.84527" lon="3.56253">
        <ele>97.1</ele>
        <time>2025-02-25T18:13:28Z</time>
      </trkpt>
      <trkpt lat="47.8451" lon="3.56268">
        <ele>97.2</ele>
        <time>2025-02-25T18:13:47Z</time>
      </trkpt>
      <trkpt lat="47.84496" lon="3.56281">
        <ele>97.2</ele>
        <time>2025-02-25T18:13:57Z</time>
      </trkpt>
      <trkpt lat="47.84474" lon="3.56297">
        <ele>98</ele>
        <time>2025-02-25T18:14:08Z</time>
      </trkpt>
      <trkpt lat="47.84462" lon="3.56306">
        <ele>98.4</ele>
        <time>2025-02-25T18:14:25Z</time>
      </trkpt>
      <trkpt lat="47.84457" lon="3.56311">
        <ele>98.5</ele>
        <time>2025-02-25T18:14:35Z</time>
      </trkpt>
      <trkpt lat="47.84454" lon="3.56319">
        <ele>98.7</ele>
        <time>2025-02-25T18:14:51Z</time>
      </trkpt>
      <trkpt lat="47.84457" lon="3.56324">
        <ele>98.6</ele>
        <time>2025-02-25T18:15:04Z</time>
      </trkpt>
      <trkpt lat="47.84458" lon="3.56328">
        <ele>98.5</ele>
        <time>2025-02-25T18:15:07Z</time>
      </trkpt>
      <trkpt lat="47.84462" lon="3.56338">
        <ele>98.4</ele>
        <time>2025-02-25T18:15:13Z</time>
      </trkpt>
      <trkpt lat="47.84474" lon="3.56379">
        <ele>98</ele>
        <time>2025-02-25T18:15:22Z</time>
      </trkpt>
      <trkpt lat="47.84481" lon="3.564">
        <ele>97.9</ele>
        <time>2025-02-25T18:15:32Z</time>
      </trkpt>
      <trkpt lat="47.84493" lon="3.56434">
        <ele>96.6</ele>
        <time>2025-02-25T18:15:52Z</time>
      </trkpt>
      <trkpt lat="47.84508" lon="3.56477">
        <ele>94.6</ele>
        <time>2025-02-25T18:16:09Z</time>
      </trkpt>
      <trkpt lat="47.84514" lon="3.56492">
        <ele>94.1</ele>
        <time>2025-02-25T18:16:27Z</time>
      </trkpt>
      <trkpt lat="47.84525" lon="3.56525">
        <ele>94</ele>
        <time>2025-02-25T18:16:46Z</time>
      </trkpt>
      <trkpt lat="47.84539" lon="3.56567">
        <ele>94</ele>
        <time>2025-02-25T18:16:52Z</time>
      </trkpt>
      <trkpt lat="47.84549" lon="3.56595">
        <ele>94</ele>
        <time>2025-02-25T18:17:03Z</time>
      </trkpt>
      <trkpt lat="47.84565" lon="3.56645">
        <ele>93.5</ele>
        <time>2025-02-25T18:17:09Z</time>
      </trkpt>
      <trkpt lat="47.84574" lon="3.56672">
        <ele>93.1</ele>
        <time>2025-02-25T18:17:20Z</time>
      </trkpt>
      <trkpt lat="47.84587" lon="3.56714">
        <ele>93.4</ele>
        <time>2025-02-25T18:17:25Z</time>
      </trkpt>
      <trkpt lat="47.84599" lon="3.56747">
        <ele>94</ele>
        <time>2025-02-25T18:17:42Z</time>
      </trkpt>
      <trkpt lat="47.8461" lon="3.5678">
        <ele>94</ele>
        <time>2025-02-25T18:17:46Z</time>
      </trkpt>
      <trkpt lat="47.84629" lon="3.56825">
        <ele>94</ele>
        <time>2025-02-25T18:18:03Z</time>
      </trkpt>
      <trkpt lat="47.84635" lon="3.56838">
        <ele>94</ele>
        <time>2025-02-25T18:18:05Z</time>
      </trkpt>
      <trkpt lat="47.84637" lon="3.56844">
        <ele>94</ele>
        <time>2025-02-25T18:18:07Z</time>
      </trkpt>
      <trkpt lat="47.8465" lon="3.56869">
        <ele>94.3</ele>
        <time>2025-02-25T18:18:22Z</time>
      </trkpt>
      <trkpt lat="47.84662" lon="3.56893">
        <ele>94</ele>
        <time>2025-02-25T18:18:29Z</time>
      </trkpt>
      <trkpt lat="47.84676" lon="3.56915">
        <ele>94.3</ele>
        <time>2025-02-25T18:18:37Z</time>
      </trkpt>
      <trkpt lat="47.84698" lon="3.56952">
        <ele>94</ele>
        <time>2025-02-25T18:18:51Z</time>
      </trkpt>
      <trkpt lat="47.84711" lon="3.56972">
        <ele>94</ele>
        <time>2025-02-25T18:19:01Z</time>
      </trkpt>
      <trkpt lat="47.84726" lon="3.56993">
        <ele>94</ele>
        <time>2025-02-25T18:19:15Z</time>
      </trkpt>
      <trkpt lat="47.84727" lon="3.56996">
        <ele>94</ele>
        <time>2025-02-25T18:19:35Z</time>
      </trkpt>
      <trkpt lat="47.84729" lon="3.57003">
        <ele>93.9</ele>
        <time>2025-02-25T18:19:44Z</time>
      </trkpt>
      <trkpt lat="47.84731" lon="3.57005">
        <ele>93.9</ele>
        <time>2025-02-25T18:19:52Z</time>
      </trkpt>
      <trkpt lat="47.84733" lon="3.57009">
        <ele>93.8</ele>
        <time>2025-02-25T18:20:04Z</time>
      </trkpt>
      <trkpt lat="47.84737" lon="3.57018">
        <ele>93.7</ele>
        <time>2025-02-25T18:20:13Z</time>
      </trkpt>
      <trkpt lat="47.84745" lon="3.5704">
        <ele>93.8</ele>
        <time>2025-02-25T18:20:24Z</time>
      </trkpt>
      <trkpt lat="47.8476" lon="3.57083">
        <ele>93.4</ele>
        <time>2025-02-25T18:20:39Z</time>
      </trkpt>
      <trkpt lat="47.84765" lon="3.57098">
        <ele>93.3</ele>
        <time>2025-02-25T18:20:53Z</time>
      </trkpt>
      <trkpt lat="47.8477" lon="3.57117">
        <ele>92.9</ele>
        <time>2025-02-25T18:21:03Z</time>
      </trkpt>
      <trkpt lat="47.84775" lon="3.57141">
        <ele>92.9</ele>
        <time>2025-02-25T18:21:22Z</time>
      </trkpt>
      <trkpt lat="47.84782" lon="3.57172">
        <ele>93</ele>
        <time>2025-02-25T18:21:34Z</time>
      </trkpt>
      <trkpt lat="47.84787" lon="3.57196">
        <ele>93</ele>
        <time>2025-02-25T18:21:47Z</time>
      </trkpt>
      <trkpt lat="47.84792" lon="3.57221">
        <ele>93.5</ele>
        <time>2025-02-25T18:21:50Z</time>
      </trkpt>
      <trkpt lat="47.84788" lon="3.57224">
        <ele>93.3</ele>
        <time>2025-02-25T18:21:57Z</time>
      </trkpt>
      <trkpt lat="47.84753" lon="3.57247">
        <ele>92.9</ele>
        <time>2025-02-25T18:22:10Z</time>
      </trkpt>
      <trkpt lat="47.84739" lon="3.5726">
        <ele>92.8</ele>
        <time>2025-02-25T18:22:28Z</time>
      </trkpt>
      <trkpt lat="47.84671" lon="3.57321">
        <ele>93</ele>
        <time>2025-02-25T18:22:36Z</time>
      </trkpt>
      <trkpt lat="47.84718" lon="3.57447">
        <ele>93.8</ele>
        <time>2025-02-25T18:22:52Z</time>
      </trkpt>
      <trkpt lat="47.84753" lon="3.57561">
        <ele>94</ele>
        <time>2025-02-25T18:22:58Z</time>
      </trkpt>
      <trkpt lat="47.84765" lon="3.57604">
        <ele>94</ele>
        <time>2025-02-25T18:23:08Z</time>
      </trkpt>
      <trkpt lat="47.84804" lon="3.57595">
        <ele>94</ele>
        <time>2025-02-25T18:23:24Z</time>
      </trkpt>
      <trkpt lat="47.84802" lon="3.57568">
        <ele>94</ele>
        <time>2025-02-25T18:23:34Z</time>
      </trkpt>
      <trkpt lat="47.84804" lon="3.57557">
        <ele>94</ele>
        <time>2025-02-25T18:23:50Z</time>
      </trkpt>
      <trkpt lat="47.84833" lon="3.57542">
        <ele>94</ele>
        <time>2025-02-25T18:24:08Z</time>
      </trkpt>
      <trkpt lat="47.84851" lon="3.57565">
        <ele>94</ele>
        <time>2025-02-25T18:24:14Z</time>
      </trkpt>
      <trkpt lat="47.84876" lon="3.57579">
        <ele>94</ele>
        <time>2025-02-25T18:24:27Z</time>
      </trkpt>
      <trkpt lat="47.8489" lon="3.5759">
        <ele>94</ele>
        <time>2025-02-25T18:24:37Z</time>
      </trkpt>
      <trkpt lat="47.84916" lon="3.57634">
        <ele>94.7</ele>
        <time>2025-02-25T18:24:53Z</time>
      </trkpt>
      <trkpt lat="47.84937" lon="3.57682">
        <ele>92.8</ele>
        <time>2025-02-25T18:25:10Z</time>
      </trkpt>
      <trkpt lat="47.84955" lon="3.57739">
        <ele>90.2</ele>
        <time>2025-02-25T18:25:28Z</time>
      </trkpt>
      <trkpt lat="47.84971" lon="3.57788">
        <ele>92.3</ele>
        <time>2025-02-25T18:25:31Z</time>
      </trkpt>
      <trkpt lat="47.84974" lon="3.57814">
        <ele>94.9</ele>
        <time>2025-02-25T18:25:46Z</time>
      </trkpt>
      <trkpt lat="47.84977" lon="3.57852">
        <ele>95</ele>
        <time>2025-02-25T18:25:54Z</time>
      </trkpt>
      <trkpt lat="47.84974" lon="3.57857">
        <ele>95</ele>
        <time>2025-02-25T18:26:00Z</time>
      </trkpt>
      <trkpt lat="47.8497" lon="3.57857">
        <ele>94.9</ele>
        <time>2025-02-25T18:26:17Z</time>
      </trkpt>
      <trkpt lat="47.8496" lon="3.57858">
        <ele>94.5</ele>
        <time>2025-02-25T18:26:19Z</time>
      </trkpt>
      <trkpt lat="47.84955" lon="3.57859">
        <ele>94.4</ele>
        <time>2025-02-25T18:26:23Z</time>
      </trkpt>
      <trkpt lat="47.84935" lon="3.5786">
        <ele>94</ele>
        <time>2025-02-25T18:26:30Z</time>
      </trkpt>
      <trkpt lat="47.8492" lon="3.57865">
        <ele>94.1</ele>
        <time>2025-02-25T18:26:43Z</time>
      </trkpt>
      <trkpt lat="47.84903" lon="3.57866">
        <ele>93.7</ele>
        <time>2025-02-25T18:27:03Z</time>
      </trkpt>
      <trkpt lat="47.84901" lon="3.57866">
        <ele>93.6</ele>
        <time>2025-02-25T18:27:12Z</time>
      </trkpt>
      <trkpt lat="47.84899" lon="3.57867">
        <ele>93.6</ele>
        <time>2025-02-25T18:27:24Z</time>
      </trkpt>
      <trkpt lat="47.84896" lon="3.57867">
        <ele>93.4</ele>
        <time>2025-02-25T18:27:44Z</time>
      </trkpt>
      <trkpt lat="47.84893" lon="3.57867">
        <ele>93.4</ele>
        <time>2025-02-25T18:28:04Z</time>
      </trkpt>
      <trkpt lat="47.84889" lon="3.57868">
        <ele>93.3</ele>
        <time>2025-02-25T18:28:06Z</time>
      </trkpt>
    </trkseg>
  </trk>
</gpx>